createdAt,value
2022-10-06T00:01:03.700Z,6.27
2022-10-06T00:03:31.730Z,5.03
2022-10-06T00:06:03.148Z,4.83
2022-10-06T00:08:35.510Z,5.27
2022-10-06T00:11:03.090Z,5.07
2022-10-06T00:13:31.279Z,5.03
2022-10-06T00:15:58.355Z,5.07
2022-10-06T00:18:25.575Z,4.57
2022-10-06T00:21:00.671Z,3.83
2022-10-06T00:23:29.117Z,4.40
2022-10-06T00:25:56.612Z,4.10
2022-10-06T00:28:23.430Z,4.40
2022-10-06T00:30:53.443Z,3.77
2022-10-06T00:33:20.753Z,4.13
2022-10-06T00:35:48.457Z,3.90
2022-10-06T00:38:19.851Z,3.40
2022-10-06T00:40:49.343Z,3.57
2022-10-06T00:43:38.133Z,3.77
2022-10-06T00:46:13.716Z,3.27
2022-10-06T00:48:41.370Z,3.90
2022-10-06T00:51:08.476Z,4.50
2022-10-06T00:53:35.642Z,4.17
2022-10-06T00:56:02.455Z,4.37
2022-10-06T00:58:29.493Z,4.13
2022-10-06T01:00:57.550Z,4.73
2022-10-06T01:03:35.897Z,4.77
2022-10-06T01:06:03.954Z,4.50
2022-10-06T01:08:32.485Z,5.33
2022-10-06T01:10:59.592Z,5.33
2022-10-06T01:13:28.031Z,5.10
2022-10-06T01:16:10.651Z,5.00
2022-10-06T01:18:40.468Z,4.87
2022-10-06T01:21:14.233Z,4.57
2022-10-06T01:23:41.449Z,4.47
2022-10-06T01:26:10.806Z,3.67
2022-10-06T01:28:40.905Z,4.70
2022-10-06T01:31:09.200Z,4.37
2022-10-06T01:33:36.276Z,4.50
2022-10-06T01:36:03.990Z,4.60
2022-10-06T01:38:31.281Z,4.83
2022-10-06T01:40:58.622Z,4.00
2022-10-06T01:43:26.043Z,4.40
2022-10-06T01:45:57.673Z,4.23
2022-10-06T01:48:25.473Z,3.80
2022-10-06T01:50:52.666Z,3.67
2022-10-06T01:53:19.535Z,4.03
2022-10-06T01:55:46.561Z,3.87
2022-10-06T01:58:13.771Z,4.17
2022-10-06T02:00:40.981Z,3.37
2022-10-06T02:03:08.498Z,3.40
2022-10-06T02:05:35.705Z,3.70
2022-10-06T02:08:02.858Z,3.50
2022-10-06T02:10:29.941Z,3.83
2022-10-06T02:12:57.177Z,3.37
2022-10-06T02:15:24.139Z,3.77
2022-10-06T02:17:51.243Z,4.13
2022-10-06T02:20:18.124Z,3.80
2022-10-06T02:22:44.881Z,3.60
2022-10-06T02:25:14.487Z,3.70
2022-10-06T02:27:41.341Z,3.87
2022-10-06T02:30:09.242Z,3.90
2022-10-06T02:32:38.279Z,4.07
2022-10-06T02:35:06.644Z,4.90
2022-10-06T02:37:34.074Z,3.77
2022-10-06T02:40:00.913Z,3.30
2022-10-06T02:42:27.839Z,3.57
2022-10-06T02:44:54.579Z,3.20
2022-10-06T02:47:22.340Z,3.13
2022-10-06T02:49:49.370Z,3.37
2022-10-06T02:52:16.341Z,3.40
2022-10-06T02:54:43.248Z,3.13
2022-10-06T02:57:10.040Z,3.07
2022-10-06T02:59:36.832Z,3.50
2022-10-06T03:02:04.018Z,3.23
2022-10-06T03:04:30.956Z,3.57
2022-10-06T03:06:57.845Z,3.50
2022-10-06T03:09:25.207Z,3.90
2022-10-06T03:11:51.998Z,3.40
2022-10-06T03:14:21.907Z,3.17
2022-10-06T03:16:51.523Z,3.20
2022-10-06T03:19:18.349Z,3.17
2022-10-06T03:21:45.163Z,3.23
2022-10-06T03:24:12.486Z,3.30
2022-10-06T03:26:45.074Z,3.50
2022-10-06T03:29:12.342Z,3.70
2022-10-06T03:31:40.193Z,2.90
2022-10-06T03:34:07.455Z,3.30
2022-10-06T03:36:34.833Z,4.87
2022-10-06T03:39:03.343Z,3.23
2022-10-06T03:41:32.641Z,3.33
2022-10-06T03:44:00.066Z,3.50
2022-10-06T03:46:30.208Z,3.60
2022-10-06T03:48:57.533Z,4.27
2022-10-06T03:51:32.827Z,3.63
2022-10-06T03:54:00.350Z,3.63
2022-10-06T03:56:29.387Z,4.07
2022-10-06T03:58:59.811Z,3.63
2022-10-06T04:01:29.456Z,3.70
2022-10-06T04:04:00.590Z,4.50
2022-10-06T04:06:30.238Z,4.37
2022-10-06T04:08:57.615Z,4.03
2022-10-06T04:11:27.049Z,4.13
2022-10-06T04:13:58.087Z,3.30
2022-10-06T04:16:39.381Z,3.73
2022-10-06T04:19:10.046Z,3.70
2022-10-06T04:21:38.542Z,4.40
2022-10-06T04:24:07.215Z,4.63
2022-10-06T04:26:37.158Z,4.13
2022-10-06T04:29:04.317Z,5.27
2022-10-06T04:31:34.485Z,4.17
2022-10-06T04:34:01.835Z,4.13
2022-10-06T04:36:31.461Z,4.10
2022-10-06T04:39:03.821Z,4.07
2022-10-06T04:41:33.127Z,3.77
2022-10-06T04:44:01.004Z,4.00
2022-10-06T04:46:45.120Z,3.87
2022-10-06T04:49:18.917Z,4.43
2022-10-06T04:51:47.260Z,3.87
2022-10-06T04:54:14.532Z,4.00
2022-10-06T04:56:41.328Z,3.27
2022-10-06T04:59:08.079Z,3.93
2022-10-06T05:01:36.709Z,3.90
2022-10-06T05:04:05.011Z,3.73
2022-10-06T05:06:41.131Z,3.70
2022-10-06T05:09:14.873Z,3.90
2022-10-06T05:11:41.749Z,5.20
2022-10-06T05:14:08.574Z,5.33
2022-10-06T05:16:38.034Z,6.03
2022-10-06T05:19:05.507Z,6.00
2022-10-06T05:21:33.229Z,5.90
2022-10-06T05:24:00.562Z,6.47
2022-10-06T05:26:29.842Z,5.20
2022-10-06T05:28:57.250Z,5.60
2022-10-06T05:31:32.857Z,5.87
2022-10-06T05:34:00.597Z,5.30
2022-10-06T05:36:33.153Z,5.27
2022-10-06T05:39:00.745Z,5.03
2022-10-06T05:41:32.674Z,4.97
2022-10-06T05:44:00.073Z,4.53
2022-10-06T05:46:29.038Z,5.10
2022-10-06T05:49:01.218Z,5.03
2022-10-06T05:51:31.523Z,5.13
2022-10-06T05:54:02.326Z,5.37
2022-10-06T05:56:31.464Z,5.00
2022-10-06T05:58:59.710Z,5.87
2022-10-06T06:01:33.497Z,5.90
2022-10-06T06:04:06.497Z,5.97
2022-10-06T06:06:35.760Z,4.77
2022-10-06T06:09:07.860Z,12.20
2022-10-06T06:11:36.743Z,6.97
2022-10-06T06:14:08.994Z,5.80
2022-10-06T06:16:37.258Z,5.60
2022-10-06T06:19:04.137Z,5.20
2022-10-06T06:21:31.252Z,6.07
2022-10-06T06:23:58.387Z,6.40
2022-10-06T06:26:30.576Z,5.73
2022-10-06T06:29:02.830Z,5.20
2022-10-06T06:31:38.199Z,6.00
2022-10-06T06:34:06.910Z,6.20
2022-10-06T06:36:41.829Z,5.37
2022-10-06T06:39:10.622Z,5.87
2022-10-06T06:41:40.661Z,5.70
2022-10-06T06:44:11.410Z,6.83
2022-10-06T06:46:39.519Z,6.27
2022-10-06T06:49:07.032Z,5.73
2022-10-06T06:51:36.884Z,5.53
2022-10-06T06:54:05.080Z,6.37
2022-10-06T06:56:36.727Z,5.60
2022-10-06T06:59:10.845Z,6.90
2022-10-06T07:01:39.362Z,5.90
2022-10-06T07:04:06.369Z,5.40
2022-10-06T07:06:33.250Z,5.40
2022-10-06T07:09:00.723Z,5.40
2022-10-06T07:11:27.627Z,5.77
2022-10-06T07:13:57.723Z,5.43
2022-10-06T07:16:43.884Z,6.00
2022-10-06T07:19:30.330Z,5.53
2022-10-06T07:22:39.914Z,4.97
2022-10-06T07:25:26.465Z,5.50
2022-10-06T07:27:54.232Z,8.20
2022-10-06T07:30:27.161Z,10.03
2022-10-06T07:32:54.848Z,11.20
2022-10-06T07:35:23.750Z,7.90
2022-10-06T07:37:51.191Z,5.50
2022-10-06T07:40:18.873Z,4.87
2022-10-06T07:42:48.757Z,5.17
2022-10-06T07:45:35.053Z,4.83
2022-10-06T07:48:02.788Z,4.20
2022-10-06T07:50:30.331Z,4.70
2022-10-06T07:52:57.169Z,3.83
2022-10-06T07:55:24.191Z,3.77
2022-10-06T07:57:51.347Z,3.80
2022-10-06T08:00:22.478Z,3.60
2022-10-06T08:02:49.851Z,2.87
2022-10-06T08:05:16.956Z,3.00
2022-10-06T08:07:43.975Z,3.17
2022-10-06T08:10:10.808Z,2.97
2022-10-06T08:12:37.941Z,2.90
2022-10-06T08:15:07.789Z,2.83
2022-10-06T08:17:38.328Z,2.90
2022-10-06T08:20:11.108Z,3.10
2022-10-06T08:22:40.029Z,2.60
2022-10-06T08:25:09.445Z,3.27
2022-10-06T08:27:38.110Z,2.90
2022-10-06T08:30:06.481Z,2.80
2022-10-06T08:32:34.218Z,2.73
2022-10-06T08:35:00.991Z,3.43
2022-10-06T08:37:28.025Z,3.37
2022-10-06T08:39:55.380Z,2.70
2022-10-06T08:42:43.526Z,2.87
2022-10-06T08:45:38.478Z,3.13
2022-10-06T08:48:14.093Z,3.10
2022-10-06T08:50:58.450Z,3.40
2022-10-06T08:53:38.507Z,3.27
2022-10-06T08:56:18.291Z,3.57
2022-10-06T08:59:05.460Z,3.10
2022-10-06T09:01:45.256Z,3.20
2022-10-06T09:04:26.096Z,3.93
2022-10-06T09:07:11.194Z,2.80
2022-10-06T09:10:01.747Z,3.37
2022-10-06T09:12:35.413Z,3.47
2022-10-06T09:15:29.337Z,3.03
2022-10-06T09:18:10.733Z,3.23
2022-10-06T09:20:57.705Z,3.30
2022-10-06T09:23:46.490Z,3.20
2022-10-06T09:26:16.266Z,3.63
2022-10-06T09:28:46.480Z,3.20
2022-10-06T09:31:24.741Z,2.90
2022-10-06T09:33:55.375Z,3.30
2022-10-06T09:36:22.510Z,3.50
2022-10-06T09:38:55.293Z,3.17
2022-10-06T09:41:45.804Z,3.10
2022-10-06T09:44:27.698Z,3.80
2022-10-06T09:46:54.899Z,4.10
2022-10-06T09:49:22.792Z,3.73
2022-10-06T09:52:03.692Z,3.47
2022-10-06T09:54:31.695Z,3.30
2022-10-06T09:57:06.956Z,3.03
2022-10-06T09:59:42.485Z,3.20
2022-10-06T10:02:29.252Z,3.20
2022-10-06T10:04:58.007Z,2.80
2022-10-06T10:07:30.188Z,2.57
2022-10-06T10:10:21.850Z,2.80
2022-10-06T10:12:52.542Z,4.17
2022-10-06T10:15:19.371Z,2.80
2022-10-06T10:17:56.781Z,3.40
2022-10-06T10:20:37.668Z,2.60
2022-10-06T10:23:28.583Z,2.40
2022-10-06T10:26:04.737Z,2.73
2022-10-06T10:28:56.041Z,2.50
2022-10-06T10:31:51.792Z,2.47
2022-10-06T10:34:36.623Z,2.30
2022-10-06T10:37:12.511Z,1.87
2022-10-06T10:40:01.910Z,3.13
2022-10-06T10:42:39.690Z,2.50
2022-10-06T10:45:16.302Z,2.17
2022-10-06T10:47:46.503Z,1.73
2022-10-06T10:50:19.471Z,2.10
2022-10-06T10:52:49.715Z,2.30
2022-10-06T10:55:37.081Z,2.93
2022-10-06T10:58:29.903Z,1.93
2022-10-06T11:01:08.337Z,2.07
2022-10-06T11:03:35.535Z,2.00
2022-10-06T11:06:22.487Z,2.20
2022-10-06T11:09:15.833Z,2.10
2022-10-06T11:12:08.985Z,2.60
2022-10-06T11:14:50.682Z,2.20
2022-10-06T11:17:50.384Z,2.20
2022-10-06T11:20:35.760Z,1.70
2022-10-06T11:23:32.903Z,1.90
2022-10-06T11:26:24.766Z,3.00
2022-10-06T11:29:28.569Z,1.90
2022-10-06T11:32:25.308Z,2.40
2022-10-06T11:34:53.404Z,1.80
2022-10-06T11:37:32.166Z,2.10
2022-10-06T11:39:59.261Z,1.83
2022-10-06T11:43:01.170Z,2.83
2022-10-06T11:45:40.785Z,3.43
2022-10-06T11:48:22.311Z,2.20
2022-10-06T11:50:53.009Z,1.90
2022-10-06T11:53:39.132Z,1.53
2022-10-06T11:56:18.182Z,1.80
2022-10-06T11:58:57.207Z,2.00
2022-10-06T12:01:43.904Z,2.37
2022-10-06T12:04:10.828Z,2.07
2022-10-06T12:06:43.695Z,2.20
2022-10-06T12:09:26.146Z,1.60
2022-10-06T12:11:55.129Z,2.33
2022-10-06T12:17:41.498Z,1.70
2022-10-06T12:20:20.125Z,2.03
2022-10-06T12:22:55.194Z,1.93
2022-10-06T12:25:38.190Z,1.77
2022-10-06T12:28:17.866Z,1.90
2022-10-06T12:31:22.671Z,1.63
2022-10-06T12:33:50.557Z,1.87
2022-10-06T12:36:25.677Z,3.67
2022-10-06T12:39:20.262Z,3.00
2022-10-06T12:42:25.112Z,3.97
2022-10-06T12:44:53.374Z,1.90
2022-10-06T12:47:37.145Z,2.10
2022-10-06T12:50:06.204Z,5.37
2022-10-06T12:52:46.191Z,4.83
2022-10-06T12:55:40.959Z,3.33
2022-10-06T12:58:29.856Z,3.77
2022-10-06T13:01:07.534Z,2.10
2022-10-06T13:03:35.236Z,2.80
2022-10-06T13:06:05.971Z,1.60
2022-10-06T13:08:37.887Z,1.63
2022-10-06T13:11:17.875Z,1.40
2022-10-06T13:14:09.771Z,2.07
2022-10-06T13:16:41.004Z,1.50
2022-10-06T13:19:35.468Z,1.70
2022-10-06T13:22:03.572Z,1.50
2022-10-06T13:24:30.825Z,1.50
2022-10-06T13:26:57.656Z,1.80
2022-10-06T13:29:26.445Z,1.60
2022-10-06T13:31:55.836Z,1.63
2022-10-06T13:34:42.227Z,1.90
2022-10-06T13:37:14.484Z,1.37
2022-10-06T13:39:41.418Z,1.50
2022-10-06T13:42:17.850Z,2.07
2022-10-06T13:45:02.098Z,5.50
2022-10-06T13:47:30.047Z,2.87
2022-10-06T13:50:05.948Z,3.70
2022-10-06T13:52:40.311Z,1.90
2022-10-06T13:55:33.708Z,1.90
2022-10-06T13:58:03.411Z,1.97
2022-10-06T14:00:56.534Z,1.63
2022-10-06T14:03:26.700Z,2.00
2022-10-06T14:06:07.400Z,1.60
2022-10-06T14:08:34.683Z,1.83
2022-10-06T14:11:05.201Z,1.90
2022-10-06T14:13:38.006Z,1.57
2022-10-06T14:16:08.083Z,1.70
2022-10-06T14:18:37.679Z,1.87
2022-10-06T14:21:30.223Z,2.00
2022-10-06T14:23:57.719Z,1.60
2022-10-06T14:26:33.069Z,1.63
2022-10-06T14:29:00.729Z,2.43
2022-10-06T14:31:29.103Z,1.17
2022-10-06T14:33:56.988Z,1.50
2022-10-06T14:36:32.422Z,1.17
2022-10-06T14:39:00.142Z,1.07
2022-10-06T14:41:29.388Z,1.10
2022-10-06T14:44:02.022Z,1.57
2022-10-06T14:46:29.994Z,1.33
2022-10-06T14:48:57.674Z,1.63
2022-10-06T14:51:26.457Z,1.33
2022-10-06T14:53:57.965Z,1.33
2022-10-06T14:56:27.706Z,1.30
2022-10-06T14:58:54.811Z,1.27
2022-10-06T15:01:25.327Z,1.90
2022-10-06T15:04:01.167Z,1.70
2022-10-06T15:06:48.755Z,1.50
2022-10-06T15:09:15.719Z,2.10
2022-10-06T15:11:42.782Z,1.40
2022-10-06T15:14:10.002Z,1.40
2022-10-06T15:16:40.632Z,1.60
2022-10-06T15:19:09.144Z,1.50
2022-10-06T15:21:35.841Z,1.10
2022-10-06T15:24:04.253Z,1.77
2022-10-06T15:26:50.513Z,1.50
2022-10-06T15:29:17.817Z,1.30
2022-10-06T15:31:51.625Z,1.60
2022-10-06T15:34:19.864Z,1.80
2022-10-06T15:36:46.732Z,1.20
2022-10-06T15:39:16.381Z,1.50
2022-10-06T15:41:46.573Z,1.60
2022-10-06T15:44:13.657Z,1.53
2022-10-06T15:47:11.380Z,1.33
2022-10-06T15:49:40.698Z,1.30
2022-10-06T15:52:09.139Z,1.63
2022-10-06T15:54:38.262Z,1.60
2022-10-06T15:57:08.748Z,1.67
2022-10-06T15:59:36.106Z,1.90
2022-10-06T16:02:07.584Z,1.70
2022-10-06T16:04:39.912Z,2.23
2022-10-06T16:07:08.539Z,1.70
2022-10-06T16:09:43.161Z,1.40
2022-10-06T16:12:13.983Z,1.37
2022-10-06T16:14:40.692Z,1.90
2022-10-06T16:17:09.458Z,2.00
2022-10-06T16:19:37.276Z,1.80
2022-10-06T16:22:05.588Z,1.50
2022-10-06T16:24:32.758Z,2.23
2022-10-06T16:27:00.091Z,2.00
2022-10-06T16:29:28.127Z,2.20
2022-10-06T16:31:55.308Z,2.10
2022-10-06T16:34:22.517Z,2.60
2022-10-06T16:36:49.266Z,2.40
2022-10-06T16:39:18.472Z,2.40
2022-10-06T16:41:45.839Z,2.63
2022-10-06T16:44:14.498Z,1.87
2022-10-06T16:46:41.599Z,2.40
2022-10-06T16:49:09.304Z,2.20
2022-10-06T16:51:39.052Z,2.50
2022-10-06T16:54:08.434Z,2.23
2022-10-06T16:56:42.511Z,2.20
2022-10-06T16:59:12.226Z,2.80
2022-10-06T17:01:39.706Z,2.70
2022-10-06T17:04:18.426Z,3.07
2022-10-06T17:06:47.964Z,2.97
2022-10-06T17:09:23.996Z,2.90
2022-10-06T17:11:59.485Z,3.23
2022-10-06T17:14:27.672Z,2.87
2022-10-06T17:16:58.156Z,2.73
2022-10-06T17:19:27.671Z,2.97
2022-10-06T17:21:58.935Z,3.67
2022-10-06T17:24:28.486Z,4.43
2022-10-06T17:26:56.336Z,3.67
2022-10-06T17:29:23.633Z,3.57
2022-10-06T17:32:00.225Z,3.50
2022-10-06T17:34:32.254Z,4.13
2022-10-06T17:37:00.834Z,4.20
2022-10-06T17:39:27.566Z,3.60
2022-10-06T17:41:54.705Z,4.07
2022-10-06T17:44:25.820Z,3.60
2022-10-06T17:46:55.526Z,4.47
2022-10-06T17:49:24.945Z,3.80
2022-10-06T17:51:53.539Z,4.40
2022-10-06T17:54:23.507Z,3.03
2022-10-06T17:56:52.876Z,3.20
2022-10-06T17:59:22.401Z,3.37
2022-10-06T18:01:51.790Z,4.23
2022-10-06T18:04:19.249Z,3.70
2022-10-06T18:06:47.317Z,4.07
2022-10-06T18:09:15.243Z,5.30
2022-10-06T18:11:44.484Z,4.77
2022-10-06T18:14:19.652Z,4.87
2022-10-06T18:16:56.273Z,5.70
2022-10-06T18:19:26.779Z,6.30
2022-10-06T18:21:56.557Z,7.47
2022-10-06T18:24:28.687Z,7.67
2022-10-06T18:26:57.027Z,8.27
2022-10-06T18:29:26.747Z,7.80
2022-10-06T18:31:54.044Z,8.23
2022-10-06T18:37:07.757Z,6.97
2022-10-06T18:39:35.004Z,7.67
2022-10-06T18:42:03.791Z,6.83
2022-10-06T18:44:49.408Z,5.50
2022-10-06T18:47:34.987Z,5.03
2022-10-06T18:50:01.826Z,5.20
2022-10-06T18:52:28.734Z,4.70
2022-10-06T18:54:55.474Z,4.20
2022-10-06T18:57:27.190Z,4.27
2022-10-06T18:59:55.170Z,3.90
2022-10-06T19:02:22.200Z,4.10
2022-10-06T19:04:49.155Z,4.73
2022-10-06T19:07:15.955Z,3.60
2022-10-06T19:09:46.500Z,4.33
2022-10-06T19:12:14.449Z,4.30
2022-10-06T19:14:47.482Z,6.13
2022-10-06T19:17:16.019Z,5.40
2022-10-06T19:19:51.583Z,6.73
2022-10-06T19:22:24.488Z,6.07
2022-10-06T19:24:51.481Z,5.40
2022-10-06T19:27:23.956Z,5.40
2022-10-06T19:29:54.338Z,5.57
2022-10-06T19:32:28.056Z,6.20
2022-10-06T19:34:58.937Z,5.87
2022-10-06T19:37:28.679Z,4.83
2022-10-06T19:39:55.478Z,4.77
2022-10-06T19:42:40.990Z,4.83
2022-10-06T19:45:09.694Z,5.60
2022-10-06T19:47:36.672Z,4.57
2022-10-06T19:50:10.433Z,4.57
2022-10-06T19:52:38.906Z,4.40
2022-10-06T19:55:06.026Z,4.63
2022-10-06T19:57:33.682Z,4.60
2022-10-06T20:00:00.761Z,4.37
2022-10-06T20:02:28.933Z,5.20
2022-10-06T20:04:56.686Z,5.70
2022-10-06T20:07:27.486Z,4.43
2022-10-06T20:09:55.004Z,4.67
2022-10-06T20:12:24.866Z,4.43
2022-10-06T20:14:53.500Z,4.13
2022-10-06T20:17:21.116Z,4.27
2022-10-06T20:19:48.090Z,4.37
2022-10-06T20:22:14.859Z,4.60
2022-10-06T20:24:41.670Z,5.10
2022-10-06T20:27:08.944Z,4.50
2022-10-06T20:29:35.768Z,3.87
2022-10-06T20:32:05.031Z,5.53
2022-10-06T20:34:32.486Z,5.20
2022-10-06T20:37:04.619Z,5.00
2022-10-06T20:39:51.909Z,5.07
2022-10-06T20:42:20.288Z,5.10
2022-10-06T20:44:47.569Z,5.00
2022-10-06T20:47:16.496Z,5.30
2022-10-06T20:49:43.393Z,5.03
2022-10-06T20:52:10.346Z,4.17
2022-10-06T20:54:37.622Z,4.53
2022-10-06T20:57:06.776Z,5.03
2022-10-06T20:59:35.424Z,10.07
2022-10-06T21:02:02.967Z,9.10
2022-10-06T21:04:30.321Z,6.17
2022-10-06T21:06:57.605Z,4.93
2022-10-06T21:09:24.873Z,4.70
2022-10-06T21:11:53.312Z,5.30
2022-10-06T21:14:20.266Z,5.10
2022-10-06T21:16:48.621Z,8.97
2022-10-06T21:19:18.490Z,10.27
2022-10-06T21:21:52.661Z,8.50
2022-10-06T21:24:20.697Z,7.57
2022-10-06T21:26:47.892Z,6.53
2022-10-06T21:29:15.869Z,6.20
2022-10-06T21:31:44.279Z,4.97
2022-10-06T21:34:11.592Z,5.77
2022-10-06T21:36:38.672Z,5.53
2022-10-06T21:39:06.553Z,6.27
2022-10-06T21:41:37.236Z,5.90
2022-10-06T21:44:04.087Z,6.13
2022-10-06T21:46:32.447Z,5.40
2022-10-06T21:49:01.039Z,4.47
2022-10-06T21:51:30.568Z,5.10
2022-10-06T21:53:58.744Z,4.93
2022-10-06T21:56:27.274Z,5.20
2022-10-06T21:58:56.104Z,5.67
2022-10-06T22:01:34.899Z,4.87
2022-10-06T22:04:02.622Z,5.07
2022-10-06T22:06:31.569Z,5.00
2022-10-06T22:08:59.852Z,5.17
2022-10-06T22:11:29.471Z,6.60
2022-10-06T22:13:58.971Z,12.30
2022-10-06T22:16:28.351Z,11.20
2022-10-06T22:18:55.362Z,10.87
2022-10-06T22:21:28.527Z,11.73
2022-10-06T22:23:59.211Z,11.77
2022-10-06T22:26:28.043Z,9.47
2022-10-06T22:28:56.274Z,9.50
2022-10-06T22:31:26.218Z,7.67
2022-10-06T22:33:58.810Z,6.47
2022-10-06T22:36:27.203Z,5.70
2022-10-06T22:38:55.159Z,5.20
2022-10-06T22:41:22.782Z,4.93
2022-10-06T22:43:52.351Z,5.17
2022-10-06T22:46:19.309Z,5.33
2022-10-06T22:48:46.327Z,5.47
2022-10-06T22:51:13.465Z,5.50
2022-10-06T22:53:40.286Z,5.07
2022-10-06T22:56:07.811Z,5.10
2022-10-06T22:58:34.836Z,4.90
2022-10-06T23:01:16.155Z,4.97
2022-10-06T23:03:43.281Z,5.37
2022-10-06T23:06:13.271Z,5.00
2022-10-06T23:08:40.626Z,4.90
2022-10-06T23:11:16.322Z,4.83
2022-10-06T23:13:43.617Z,4.57
2022-10-06T23:16:15.310Z,5.40
2022-10-06T23:18:43.394Z,5.87
2022-10-06T23:21:22.299Z,5.97
2022-10-06T23:23:51.715Z,5.97
2022-10-06T23:26:19.232Z,5.50
2022-10-06T23:28:47.118Z,5.27
2022-10-06T23:31:14.201Z,5.33
2022-10-06T23:33:41.135Z,5.57
2022-10-06T23:36:14.672Z,5.43
2022-10-06T23:38:42.635Z,5.87
2022-10-06T23:41:09.553Z,6.23
2022-10-06T23:43:36.763Z,5.77
2022-10-06T23:46:04.589Z,5.80
2022-10-06T23:48:31.548Z,5.93
2022-10-06T23:51:04.811Z,5.80
2022-10-06T23:53:33.724Z,5.83
2022-10-06T23:56:01.037Z,5.60
2022-10-06T23:58:28.413Z,5.20
